createdAt,value
2023-01-07T00:01:22.507Z,99259.13
2023-01-07T00:03:49.798Z,99257.66
2023-01-07T00:06:24.853Z,99255.88
2023-01-07T00:08:54.178Z,99259.34
2023-01-07T00:11:23.807Z,99258.28
2023-01-07T00:13:52.441Z,99260.31
2023-01-07T00:16:21.931Z,99261.06
2023-01-07T00:18:48.810Z,99253.56
2023-01-07T00:21:17.476Z,99251.13
2023-01-07T00:23:45.326Z,99257.50
2023-01-07T00:26:17.712Z,99258.31
2023-01-07T00:28:46.465Z,99256.72
2023-01-07T00:31:16.369Z,99256.06
2023-01-07T00:33:51.847Z,99257.75
2023-01-07T00:36:19.769Z,99254.28
2023-01-07T00:38:46.572Z,99254.91
2023-01-07T00:41:13.656Z,99246.91
2023-01-07T00:43:40.288Z,99239.91
2023-01-07T00:46:06.983Z,99248.13
2023-01-07T00:48:33.614Z,99248.13
2023-01-07T00:51:00.248Z,99252.28
2023-01-07T00:53:29.607Z,99235.47
2023-01-07T00:55:56.876Z,99232.19
2023-01-07T00:58:26.103Z,99236.53
2023-01-07T01:00:57.463Z,99236.22
2023-01-07T01:03:24.899Z,99233.28
2023-01-07T01:05:51.842Z,99226.38
2023-01-07T01:08:20.341Z,99230.81
2023-01-07T01:10:47.141Z,99237.06
2023-01-07T01:13:18.261Z,99235.91
2023-01-07T01:15:47.330Z,99234.81
2023-01-07T01:18:15.077Z,99230.38
2023-01-07T01:20:42.363Z,99231.13
2023-01-07T01:23:09.450Z,99231.88
2023-01-07T01:25:36.188Z,99234.63
2023-01-07T01:28:02.863Z,99232.41
2023-01-07T01:30:29.456Z,99229.03
2023-01-07T01:32:56.093Z,99235.28
2023-01-07T01:35:22.717Z,99229.13
2023-01-07T01:37:49.342Z,99236.00
2023-01-07T01:40:16.143Z,99240.44
2023-01-07T01:42:42.722Z,99231.56
2023-01-07T01:45:10.866Z,99238.66
2023-01-07T01:47:55.826Z,99229.53
2023-01-07T01:50:39.702Z,99224.25
2023-01-07T01:53:30.295Z,99231.47
2023-01-07T01:56:11.062Z,99234.81
2023-01-07T01:58:43.537Z,99221.63
2023-01-07T02:01:10.257Z,99217.06
2023-01-07T02:03:38.092Z,99211.16
2023-01-07T02:06:06.120Z,99218.13
2023-01-07T02:08:33.117Z,99217.28
2023-01-07T02:11:23.327Z,99218.88
2023-01-07T02:13:57.744Z,99217.06
2023-01-07T02:16:32.961Z,99221.50
2023-01-07T02:19:29.873Z,99220.56
2023-01-07T02:22:00.365Z,99218.13
2023-01-07T02:24:48.700Z,99212.00
2023-01-07T02:27:37.993Z,99211.78
2023-01-07T02:30:19.991Z,99209.13
2023-01-07T02:33:04.720Z,99196.78
2023-01-07T02:35:43.648Z,99194.13
2023-01-07T02:38:29.153Z,99206.50
2023-01-07T02:41:17.227Z,99205.84
2023-01-07T02:43:46.795Z,99208.19
2023-01-07T02:46:16.099Z,99203.84
2023-01-07T02:48:45.168Z,99201.22
2023-01-07T02:51:12.300Z,99198.47
2023-01-07T02:53:42.250Z,99200.38
2023-01-07T02:56:14.840Z,99194.03
2023-01-07T02:59:06.347Z,99194.03
2023-01-07T03:01:57.719Z,99193.38
2023-01-07T03:04:58.288Z,99197.63
2023-01-07T03:07:48.899Z,99194.84
2023-01-07T03:10:18.402Z,99192.53
2023-01-07T03:12:54.839Z,99191.69
2023-01-07T03:15:33.817Z,99191.47
2023-01-07T03:18:03.223Z,99195.19
2023-01-07T03:20:32.185Z,99191.69
2023-01-07T03:22:59.164Z,99197.94
2023-01-07T03:25:30.834Z,99197.81
2023-01-07T03:27:59.354Z,99188.59
2023-01-07T03:30:28.273Z,99195.81
2023-01-07T03:33:02.819Z,99199.19
2023-01-07T03:35:32.517Z,99195.69
2023-01-07T03:38:01.880Z,99187.91
2023-01-07T03:40:28.439Z,99189.69
2023-01-07T03:42:55.094Z,99181.75
2023-01-07T03:45:24.118Z,99178.28
2023-01-07T03:47:53.233Z,99180.91
2023-01-07T03:50:20.597Z,99181.97
2023-01-07T03:52:51.210Z,99181.13
2023-01-07T03:55:18.470Z,99179.13
2023-01-07T03:57:45.101Z,99178.16
2023-01-07T04:00:13.752Z,99177.53
2023-01-07T04:02:40.446Z,99170.56
2023-01-07T04:05:07.410Z,99166.09
2023-01-07T04:07:33.968Z,99167.81
2023-01-07T04:10:00.772Z,99165.16
2023-01-07T04:12:27.414Z,99167.91
2023-01-07T04:14:54.170Z,99170.44
2023-01-07T04:17:20.802Z,99164.41
2023-01-07T04:19:47.439Z,99164.41
2023-01-07T04:22:14.254Z,99158.41
2023-01-07T04:24:40.836Z,99162.75
2023-01-07T04:27:07.768Z,99155.13
2023-01-07T04:29:34.351Z,99151.34
2023-01-07T04:32:00.991Z,99157.47
2023-01-07T04:34:27.826Z,99153.84
2023-01-07T04:36:54.472Z,99149.75
2023-01-07T04:39:21.201Z,99152.38
2023-01-07T04:41:47.860Z,99149.00
2023-01-07T04:44:15.598Z,99149.97
2023-01-07T04:46:42.274Z,99152.59
2023-01-07T04:49:09.049Z,99143.19
2023-01-07T04:51:35.694Z,99144.56
2023-01-07T04:54:02.351Z,99140.13
2023-01-07T04:56:29.010Z,99138.22
2023-01-07T04:58:55.628Z,99145.41
2023-01-07T05:01:22.374Z,99138.66
2023-01-07T05:03:49.104Z,99139.50
2023-01-07T05:06:15.765Z,99131.16
2023-01-07T05:08:42.411Z,99126.09
2023-01-07T05:11:09.047Z,99125.97
2023-01-07T05:13:35.678Z,99118.81
2023-01-07T05:16:03.427Z,99114.13
2023-01-07T05:18:30.488Z,99112.44
2023-01-07T05:20:57.289Z,99112.22
2023-01-07T05:23:23.961Z,99099.47
2023-01-07T05:25:50.590Z,99101.16
2023-01-07T05:28:17.239Z,99091.75
2023-01-07T05:30:43.974Z,99100.41
2023-01-07T05:33:10.643Z,99098.72
2023-01-07T05:35:37.285Z,99091.28
2023-01-07T05:38:04.088Z,99094.88
2023-01-07T05:40:30.839Z,99083.50
2023-01-07T05:42:58.118Z,99080.00
2023-01-07T05:45:24.746Z,99085.28
2023-01-07T05:47:51.349Z,99086.44
2023-01-07T05:50:18.028Z,99084.31
2023-01-07T05:52:44.731Z,99087.31
2023-01-07T05:55:11.395Z,99076.72
2023-01-07T05:57:38.035Z,99087.41
2023-01-07T06:00:05.394Z,99085.94
2023-01-07T06:02:32.089Z,99088.59
2023-01-07T06:04:58.822Z,99090.28
2023-01-07T06:07:25.599Z,99075.88
2023-01-07T06:09:52.242Z,99089.78
2023-01-07T06:12:18.931Z,99079.81
2023-01-07T06:14:45.614Z,99079.72
2023-01-07T06:17:12.239Z,99073.47
2023-01-07T06:19:38.888Z,99081.63
2023-01-07T06:22:05.920Z,99085.44
2023-01-07T06:24:32.566Z,99088.84
2023-01-07T06:26:59.176Z,99088.84
2023-01-07T06:29:25.864Z,99090.28
2023-01-07T06:31:52.564Z,99077.81
2023-01-07T06:34:19.220Z,99077.56
2023-01-07T06:36:45.949Z,99082.25
2023-01-07T06:39:12.645Z,99076.13
2023-01-07T06:41:39.321Z,99075.88
2023-01-07T06:44:06.226Z,99082.00
2023-01-07T06:46:32.955Z,99078.66
2023-01-07T06:48:59.562Z,99082.38
2023-01-07T06:51:26.187Z,99072.44
2023-01-07T06:53:52.836Z,99076.56
2023-01-07T06:56:19.454Z,99074.16
2023-01-07T06:58:46.105Z,99073.44
2023-01-07T07:01:12.928Z,99073.19
2023-01-07T07:03:39.711Z,99070.56
2023-01-07T07:06:06.581Z,99062.63
2023-01-07T07:08:33.265Z,99063.56
2023-01-07T07:10:59.932Z,99063.69
2023-01-07T07:13:26.767Z,99068.84
2023-01-07T07:15:53.470Z,99066.47
2023-01-07T07:18:20.525Z,99070.06
2023-01-07T07:20:47.538Z,99066.56
2023-01-07T07:23:14.515Z,99065.63
2023-01-07T07:25:41.172Z,99066.47
2023-01-07T07:28:07.872Z,99060.34
2023-01-07T07:30:45.544Z,99056.09
2023-01-07T07:33:19.563Z,99062.56
2023-01-07T07:35:46.718Z,99053.81
2023-01-07T07:38:13.456Z,99054.66
2023-01-07T07:40:40.225Z,99058.13
2023-01-07T07:43:10.378Z,99060.88
2023-01-07T07:45:40.022Z,99056.34
2023-01-07T07:48:07.970Z,99050.81
2023-01-07T07:50:35.663Z,99047.97
2023-01-07T07:53:02.550Z,99047.72
2023-01-07T07:55:29.287Z,99052.91
2023-01-07T07:57:57.331Z,99051.72
2023-01-07T08:00:24.207Z,99038.06
2023-01-07T08:02:50.926Z,99040.69
2023-01-07T08:05:17.747Z,99046.13
2023-01-07T08:07:44.541Z,99034.56
2023-01-07T08:10:11.244Z,99034.00
2023-01-07T08:12:38.823Z,99033.16
2023-01-07T08:15:08.134Z,99037.38
2023-01-07T08:17:36.473Z,99034.84
2023-01-07T08:20:06.250Z,99034.00
2023-01-07T08:22:35.590Z,99037.28
2023-01-07T08:25:02.863Z,99031.03
2023-01-07T08:27:29.978Z,99022.91
2023-01-07T08:29:57.074Z,99021.59
2023-01-07T08:32:24.140Z,99024.22
2023-01-07T08:34:50.828Z,99029.53
2023-01-07T08:37:17.494Z,99031.31
2023-01-07T08:39:44.302Z,99027.50
2023-01-07T08:42:10.940Z,99031.59
2023-01-07T08:44:37.683Z,99023.66
2023-01-07T08:47:04.346Z,99013.81
2023-01-07T08:49:30.979Z,99020.78
2023-01-07T08:51:57.774Z,99025.09
2023-01-07T08:54:24.436Z,99022.00
2023-01-07T08:56:51.101Z,99021.53
2023-01-07T08:59:17.764Z,99020.69
2023-01-07T09:01:44.578Z,99011.56
2023-01-07T09:04:11.297Z,99016.38
2023-01-07T09:06:38.062Z,99007.97
2023-01-07T09:09:04.776Z,99009.69
2023-01-07T09:11:31.445Z,99008.84
2023-01-07T09:13:58.123Z,99011.72
2023-01-07T09:16:24.776Z,99013.03
2023-01-07T09:18:51.459Z,99008.47
2023-01-07T09:21:18.111Z,99012.44
2023-01-07T09:23:44.849Z,99005.94
2023-01-07T09:26:11.521Z,99011.00
2023-01-07T09:28:38.279Z,99011.00
2023-01-07T09:31:05.617Z,99014.81
2023-01-07T09:33:32.524Z,99003.66
2023-01-07T09:35:59.256Z,99014.25
2023-01-07T09:38:26.010Z,99011.97
2023-01-07T09:40:53.447Z,99013.66
2023-01-07T09:44:00.565Z,99003.56
2023-01-07T09:46:29.352Z,99007.03
2023-01-07T09:49:01.484Z,99012.06
2023-01-07T09:51:50.700Z,99005.94
2023-01-07T09:54:32.049Z,99003.41
2023-01-07T09:56:58.816Z,99000.91
2023-01-07T09:59:25.633Z,98999.94
2023-01-07T10:02:16.618Z,98993.19
2023-01-07T10:04:57.594Z,98986.34
2023-01-07T10:07:35.248Z,98982.88
2023-01-07T10:10:07.958Z,98984.41
2023-01-07T10:12:46.615Z,98967.72
2023-01-07T10:15:13.207Z,98977.31
2023-01-07T10:17:52.138Z,98967.47
2023-01-07T10:20:43.287Z,98960.38
2023-01-07T10:23:13.223Z,98959.91
2023-01-07T10:25:50.000Z,98964.34
2023-01-07T10:28:25.433Z,98958.59
2023-01-07T10:30:52.334Z,98957.75
2023-01-07T10:33:30.892Z,98945.00
2023-01-07T10:36:18.703Z,98948.72
2023-01-07T10:38:59.641Z,98950.41
2023-01-07T10:41:35.434Z,98945.09
2023-01-07T10:44:25.993Z,98943.53
2023-01-07T10:47:11.304Z,98931.63
2023-01-07T10:50:25.211Z,98938.03
2023-01-07T10:53:09.828Z,98926.72
2023-01-07T10:55:50.247Z,98922.88
2023-01-07T10:58:16.995Z,98913.38
2023-01-07T11:00:47.922Z,98913.50
2023-01-07T11:03:24.525Z,98907.50
2023-01-07T11:05:59.910Z,98900.16
2023-01-07T11:08:38.216Z,98893.06
2023-01-07T11:11:07.049Z,98895.81
2023-01-07T11:13:39.400Z,98894.84
2023-01-07T11:16:11.878Z,98890.53
2023-01-07T11:19:03.738Z,98872.75
2023-01-07T11:21:44.169Z,98874.91
2023-01-07T11:24:31.669Z,98877.06
2023-01-07T11:27:10.599Z,98871.56
2023-01-07T11:29:42.576Z,98873.25
2023-01-07T11:32:32.949Z,98858.44
2023-01-07T11:35:21.762Z,98855.44
2023-01-07T11:37:49.930Z,98848.97
2023-01-07T11:40:23.524Z,98853.28
2023-01-07T11:42:58.435Z,98848.97
2023-01-07T11:46:20.005Z,98842.38
2023-01-07T11:48:42.872Z,98838.41
2023-01-07T11:51:11.078Z,98840.19
2023-01-07T11:53:43.770Z,98832.84
2023-01-07T11:56:20.881Z,98831.44
2023-01-07T11:59:11.881Z,98830.44
2023-01-07T12:01:47.737Z,98820.34
2023-01-07T12:04:28.047Z,98822.41
2023-01-07T12:06:58.331Z,98814.69
2023-01-07T12:09:36.372Z,98818.06
2023-01-07T12:12:34.255Z,98808.53
2023-01-07T12:15:16.272Z,98805.06
2023-01-07T12:17:46.449Z,98802.19
2023-01-07T12:20:31.170Z,98798.69
2023-01-07T12:23:10.085Z,98801.13
2023-01-07T12:25:52.628Z,98797.66
2023-01-07T12:28:29.035Z,98790.56
2023-01-07T12:31:16.366Z,98776.88
2023-01-07T12:34:00.604Z,98770.16
2023-01-07T12:36:52.608Z,98757.91
2023-01-07T12:39:25.418Z,98747.56
2023-01-07T12:42:19.344Z,98728.78
2023-01-07T12:45:04.121Z,98727.44
2023-01-07T12:47:40.033Z,98725.88
2023-01-07T12:50:30.339Z,98708.09
2023-01-07T12:53:03.760Z,98716.41
2023-01-07T12:55:37.230Z,98705.22
2023-01-07T12:58:19.165Z,98706.69
2023-01-07T13:01:07.617Z,98703.06
2023-01-07T13:03:45.102Z,98702.69
2023-01-07T13:06:18.889Z,98687.91
2023-01-07T13:09:07.511Z,98696.09
2023-01-07T13:12:00.658Z,98693.84
2023-01-07T13:14:33.437Z,98683.00
2023-01-07T13:17:16.674Z,98677.81
2023-01-07T13:19:43.531Z,98684.53
2023-01-07T13:22:25.787Z,98684.06
2023-01-07T13:25:00.253Z,98670.03
2023-01-07T13:27:56.646Z,98670.41
2023-01-07T13:30:58.215Z,98666.06
2023-01-07T13:33:34.637Z,98660.16
2023-01-07T13:36:01.184Z,98657.91
2023-01-07T13:38:42.863Z,98666.38
2023-01-07T13:41:34.188Z,98659.88
2023-01-07T13:44:22.752Z,98666.72
2023-01-07T13:46:50.015Z,98661.56
2023-01-07T13:49:33.025Z,98653.75
2023-01-07T13:52:21.266Z,98656.75
2023-01-07T13:54:47.874Z,98649.78
2023-01-07T13:57:44.399Z,98655.66
2023-01-07T14:00:37.488Z,98652.69
2023-01-07T14:03:04.479Z,98643.78
2023-01-07T14:05:31.280Z,98649.69
2023-01-07T14:08:04.141Z,98648.00
2023-01-07T14:10:33.895Z,98648.84
2023-01-07T14:13:06.530Z,98642.31
2023-01-07T14:16:09.858Z,98643.06
2023-01-07T14:18:42.390Z,98646.56
2023-01-07T14:21:24.924Z,98637.31
2023-01-07T14:24:10.073Z,98642.72
2023-01-07T14:26:56.942Z,98637.44
2023-01-07T14:29:50.268Z,98631.75
2023-01-07T14:32:19.883Z,98639.00
2023-01-07T14:35:22.088Z,98632.47
2023-01-07T14:37:49.543Z,98635.34
2023-01-07T14:40:37.403Z,98620.00
2023-01-07T14:43:42.280Z,98627.59
2023-01-07T14:46:08.916Z,98620.38
2023-01-07T14:48:37.540Z,98610.28
2023-01-07T14:51:25.677Z,98614.13
2023-01-07T14:54:28.903Z,98610.41
2023-01-07T14:57:20.266Z,98611.13
2023-01-07T15:00:01.977Z,98603.91
2023-01-07T15:02:46.877Z,98598.75
2023-01-07T15:05:44.181Z,98597.91
2023-01-07T15:08:33.067Z,98593.00
2023-01-07T15:11:19.896Z,98588.06
2023-01-07T15:14:18.091Z,98582.06
2023-01-07T15:16:49.231Z,98585.19
2023-01-07T15:19:16.262Z,98582.91
2023-01-07T15:22:24.574Z,98579.91
2023-01-07T15:25:17.373Z,98573.69
2023-01-07T15:28:23.679Z,98571.28
2023-01-07T15:31:04.654Z,98573.91
2023-01-07T15:33:49.600Z,98577.50
2023-01-07T15:36:16.703Z,98571.72
2023-01-07T15:38:55.993Z,98571.53
2023-01-07T15:41:34.842Z,98571.41
2023-01-07T15:44:04.285Z,98566.25
2023-01-07T15:46:32.253Z,98570.81
2023-01-07T15:49:11.237Z,98566.59
2023-01-07T15:51:40.524Z,98569.75
2023-01-07T15:54:37.172Z,98555.81
2023-01-07T15:57:28.098Z,98557.72
2023-01-07T15:59:56.030Z,98555.69
2023-01-07T16:02:27.907Z,98553.53
2023-01-07T16:04:58.675Z,98541.63
2023-01-07T16:07:33.007Z,98557.59
2023-01-07T16:10:00.153Z,98549.94
2023-01-07T16:12:34.905Z,98559.06
2023-01-07T16:15:04.914Z,98539.38
2023-01-07T16:17:31.873Z,98532.41
2023-01-07T16:20:12.239Z,98541.78
2023-01-07T16:22:40.788Z,98533.88
2023-01-07T16:25:13.467Z,98543.22
2023-01-07T16:27:40.354Z,98545.97
2023-01-07T16:30:15.208Z,98535.91
2023-01-07T16:32:43.860Z,98544.31
2023-01-07T16:35:20.766Z,98530.78
2023-01-07T16:37:48.919Z,98546.00
2023-01-07T16:40:25.517Z,98540.63
2023-01-07T16:42:52.677Z,98541.47
2023-01-07T16:45:37.734Z,98551.06
2023-01-07T16:48:21.557Z,98546.84
2023-01-07T16:50:50.050Z,98540.63
2023-01-07T16:53:25.529Z,98542.41
2023-01-07T16:56:06.216Z,98531.97
2023-01-07T16:58:46.903Z,98536.69
2023-01-07T17:01:18.711Z,98526.94
2023-01-07T17:03:53.752Z,98524.88
2023-01-07T17:06:38.901Z,98524.31
2023-01-07T17:09:06.365Z,98516.63
2023-01-07T17:11:40.115Z,98518.81
2023-01-07T17:14:35.689Z,98517.84
2023-01-07T17:17:04.344Z,98511.84
2023-01-07T17:19:46.431Z,98524.09
2023-01-07T17:22:38.166Z,98518.91
2023-01-07T17:25:25.105Z,98509.47
2023-01-07T17:27:59.700Z,98510.88
2023-01-07T17:30:33.350Z,98507.66
2023-01-07T17:33:00.182Z,98486.41
2023-01-07T17:35:27.039Z,98494.31
2023-01-07T17:37:54.617Z,98496.25
2023-01-07T17:40:21.325Z,98506.22
2023-01-07T17:43:08.287Z,98500.09
2023-01-07T17:45:35.274Z,98498.28
2023-01-07T17:48:02.063Z,98487.25
2023-01-07T17:50:35.876Z,98482.34
2023-01-07T17:53:02.935Z,98485.38
2023-01-07T17:55:31.724Z,98499.63
2023-01-07T17:57:58.673Z,98486.69
2023-01-07T18:00:28.381Z,98489.19
2023-01-07T18:02:57.090Z,98477.81
2023-01-07T18:05:25.456Z,98470.13
2023-01-07T18:07:52.871Z,98462.94
2023-01-07T18:10:25.098Z,98473.50
2023-01-07T18:12:51.764Z,98463.91
2023-01-07T18:15:27.902Z,98464.41
2023-01-07T18:17:54.691Z,98464.41
2023-01-07T18:20:23.046Z,98461.75
2023-01-07T18:22:50.635Z,98459.34
2023-01-07T18:25:20.230Z,98462.50
2023-01-07T18:27:48.066Z,98474.69
2023-01-07T18:30:19.293Z,98465.59
2023-01-07T18:32:46.124Z,98463.41
2023-01-07T18:35:13.166Z,98469.97
2023-01-07T18:37:40.505Z,98467.72
2023-01-07T18:40:09.123Z,98466.63
2023-01-07T18:42:36.587Z,98452.63
2023-01-07T18:45:04.992Z,98457.22
2023-01-07T18:47:32.270Z,98455.19
2023-01-07T18:49:59.204Z,98455.75
2023-01-07T18:52:26.143Z,98462.38
2023-01-07T18:54:52.865Z,98449.28
2023-01-07T18:57:19.447Z,98457.69
2023-01-07T18:59:46.139Z,98451.69
2023-01-07T19:02:18.731Z,98453.63
2023-01-07T19:04:47.311Z,98439.59
2023-01-07T19:07:14.145Z,98435.41
2023-01-07T19:09:40.891Z,98439.13
2023-01-07T19:12:07.789Z,98415.63
2023-01-07T19:14:35.057Z,98431.22
2023-01-07T19:17:02.333Z,98444.78
2023-01-07T19:19:37.055Z,98435.03
2023-01-07T19:22:15.749Z,98435.41
2023-01-07T19:24:42.413Z,98430.13
2023-01-07T19:27:09.128Z,98422.22
2023-01-07T19:29:35.795Z,98426.03
2023-01-07T19:32:02.438Z,98422.22
2023-01-07T19:34:29.179Z,98413.81
2023-01-07T19:36:55.840Z,98403.25
2023-01-07T19:39:23.775Z,98410.22
2023-01-07T19:41:50.556Z,98401.94
2023-01-07T19:44:17.276Z,98399.19
2023-01-07T19:46:44.166Z,98395.34
2023-01-07T19:49:12.001Z,98395.00
2023-01-07T19:51:40.740Z,98384.78
2023-01-07T19:54:09.693Z,98386.63
2023-01-07T19:56:36.852Z,98377.88
2023-01-07T19:59:03.960Z,98383.81
2023-01-07T20:01:30.764Z,98377.09
2023-01-07T20:03:58.846Z,98375.91
2023-01-07T20:06:29.147Z,98366.13
2023-01-07T20:08:57.904Z,98366.38
2023-01-07T20:11:25.437Z,98368.38
2023-01-07T20:13:52.356Z,98360.69
2023-01-07T20:16:23.487Z,98355.06
2023-01-07T20:18:52.878Z,98351.72
2023-01-07T20:21:22.396Z,98347.16
2023-01-07T20:23:49.495Z,98329.53
2023-01-07T20:26:22.111Z,98333.97
2023-01-07T20:28:50.470Z,98330.59
2023-01-07T20:31:18.824Z,98339.97
2023-01-07T20:33:47.507Z,98336.66
2023-01-07T20:36:17.460Z,98333.03
2023-01-07T20:38:45.626Z,98338.91
2023-01-07T20:41:21.617Z,98341.44
2023-01-07T20:43:57.250Z,98333.50
2023-01-07T20:46:25.217Z,98329.03
2023-01-07T20:48:51.908Z,98323.91
2023-01-07T20:51:19.360Z,98324.41
2023-01-07T20:53:49.420Z,98318.19
2023-01-07T20:56:18.963Z,98319.38
2023-01-07T20:58:46.317Z,98303.56
2023-01-07T21:01:16.049Z,98297.22
2023-01-07T21:03:46.101Z,98309.25
2023-01-07T21:06:15.450Z,98317.81
2023-01-07T21:08:42.354Z,98312.75
2023-01-07T21:11:14.010Z,98321.41
2023-01-07T21:13:49.810Z,98305.81
2023-01-07T21:16:17.403Z,98309.56
2023-01-07T21:18:46.604Z,98311.69
2023-01-07T21:21:16.587Z,98312.59
2023-01-07T21:23:48.891Z,98315.22
2023-01-07T21:26:17.187Z,98316.66
2023-01-07T21:28:44.740Z,98317.41
2023-01-07T21:31:13.054Z,98319.44
2023-01-07T21:33:43.393Z,98316.91
2023-01-07T21:36:15.913Z,98308.66
2023-01-07T21:38:43.336Z,98310.34
2023-01-07T21:41:16.209Z,98312.59
2023-01-07T21:43:43.857Z,98309.38
2023-01-07T21:46:10.949Z,98310.97
2023-01-07T21:48:40.357Z,98301.47
2023-01-07T21:51:10.752Z,98295.81
2023-01-07T21:53:37.534Z,98292.84
2023-01-07T21:56:09.377Z,98284.53
2023-01-07T21:58:37.141Z,98288.84
2023-01-07T22:01:05.912Z,98289.97
2023-01-07T22:03:32.952Z,98283.38
2023-01-07T22:06:15.486Z,98284.59
2023-01-07T22:08:42.120Z,98273.34
2023-01-07T22:11:13.246Z,98269.03
2023-01-07T22:13:40.026Z,98282.22
2023-01-07T22:16:07.431Z,98277.09
2023-01-07T22:18:34.825Z,98274.25
2023-01-07T22:21:01.596Z,98267.28
2023-01-07T22:23:28.221Z,98267.75
2023-01-07T22:25:54.879Z,98264.25
2023-01-07T22:28:23.689Z,98256.63
2023-01-07T22:30:55.729Z,98263.81
2023-01-07T22:33:22.761Z,98267.56
2023-01-07T22:35:51.263Z,98261.28
2023-01-07T22:38:20.181Z,98275.59
2023-01-07T22:40:46.951Z,98267.09
2023-01-07T22:43:15.476Z,98266.97
2023-01-07T22:45:57.311Z,98256.16
2023-01-07T22:48:27.357Z,98259.16
2023-01-07T22:50:57.940Z,98273.84
2023-01-07T22:53:24.815Z,98274.09
2023-01-07T22:55:51.596Z,98272.41
2023-01-07T22:58:18.655Z,98267.13
2023-01-07T23:00:51.539Z,98266.50
2023-01-07T23:03:23.165Z,98250.25
2023-01-07T23:05:50.961Z,98236.44
2023-01-07T23:08:18.338Z,98234.59
2023-01-07T23:10:45.009Z,98231.91
2023-01-07T23:13:11.895Z,98216.31
2023-01-07T23:15:39.619Z,98209.63
2023-01-07T23:18:08.311Z,98206.53
2023-01-07T23:20:38.522Z,98208.22
2023-01-07T23:23:05.864Z,98207.56
2023-01-07T23:25:32.571Z,98195.22
2023-01-07T23:27:59.263Z,98192.06
2023-01-07T23:30:25.875Z,98194.72
2023-01-07T23:32:52.470Z,98188.53
2023-01-07T23:35:19.142Z,98191.16
2023-01-07T23:37:45.757Z,98197.84
2023-01-07T23:40:12.872Z,98183.69
2023-01-07T23:42:39.549Z,98199.53
2023-01-07T23:45:07.314Z,98189.13
2023-01-07T23:47:34.266Z,98188.53
2023-01-07T23:50:00.941Z,98192.13
2023-01-07T23:52:27.561Z,98170.59
2023-01-07T23:54:54.283Z,98173.72
2023-01-07T23:57:20.936Z,98171.38
2023-01-07T23:59:47.711Z,98167.28
